createdAt,value
2023-05-06T00:02:10.026Z,14.00
2023-05-06T00:04:37.181Z,13.90
2023-05-06T00:07:04.111Z,13.90
2023-05-06T00:09:30.946Z,13.90
2023-05-06T00:11:57.944Z,13.90
2023-05-06T00:14:24.840Z,13.90
2023-05-06T00:16:51.677Z,13.90
2023-05-06T00:19:18.871Z,13.90
2023-05-06T00:21:45.716Z,13.90
2023-05-06T00:24:12.500Z,13.80
2023-05-06T00:26:39.296Z,13.80
2023-05-06T00:29:06.038Z,13.80
2023-05-06T00:31:32.912Z,13.80
2023-05-06T00:33:59.744Z,13.80
2023-05-06T00:36:26.602Z,13.80
2023-05-06T00:38:53.585Z,13.90
2023-05-06T00:41:20.505Z,13.90
2023-05-06T00:43:47.366Z,13.90
2023-05-06T00:46:16.370Z,13.90
2023-05-06T00:48:44.508Z,14.00
2023-05-06T00:51:12.365Z,13.90
2023-05-06T00:53:39.856Z,14.00
2023-05-06T00:56:07.476Z,13.90
2023-05-06T00:58:35.022Z,13.90
2023-05-06T01:01:02.232Z,13.90
2023-05-06T01:03:29.722Z,13.90
2023-05-06T01:06:17.264Z,13.90
2023-05-06T01:08:53.551Z,14.00
2023-05-06T01:11:35.354Z,14.00
2023-05-06T01:14:36.804Z,14.00
2023-05-06T01:17:07.094Z,14.10
2023-05-06T01:19:42.291Z,14.00
2023-05-06T01:22:11.533Z,14.00
2023-05-06T01:24:40.472Z,14.00
2023-05-06T01:27:08.383Z,14.00
2023-05-06T01:29:37.331Z,14.00
2023-05-06T01:32:19.559Z,14.00
2023-05-06T01:35:08.289Z,13.90
2023-05-06T01:37:58.015Z,13.90
2023-05-06T01:40:28.312Z,13.80
2023-05-06T01:42:55.740Z,13.80
2023-05-06T01:45:27.578Z,13.70
2023-05-06T01:47:54.713Z,13.90
2023-05-06T01:50:21.994Z,13.90
2023-05-06T01:52:59.980Z,14.00
2023-05-06T01:55:27.377Z,13.90
2023-05-06T01:57:55.055Z,13.90
2023-05-06T02:00:22.360Z,13.90
2023-05-06T02:02:50.045Z,13.90
2023-05-06T02:05:17.417Z,14.00
2023-05-06T02:07:48.621Z,14.00
2023-05-06T02:10:15.731Z,14.00
2023-05-06T02:12:48.182Z,14.00
2023-05-06T02:15:15.771Z,13.90
2023-05-06T02:17:43.799Z,14.00
2023-05-06T02:20:10.863Z,13.90
2023-05-06T02:22:37.665Z,13.80
2023-05-06T02:25:04.990Z,13.80
2023-05-06T02:27:31.860Z,13.80
2023-05-06T02:29:59.040Z,13.70
2023-05-06T02:32:26.141Z,13.70
2023-05-06T02:34:54.168Z,13.60
2023-05-06T02:37:22.510Z,13.70
2023-05-06T02:39:49.367Z,13.60
2023-05-06T02:42:16.262Z,13.80
2023-05-06T02:44:43.144Z,13.80
2023-05-06T02:47:09.955Z,13.80
2023-05-06T02:49:36.712Z,13.60
2023-05-06T02:52:03.590Z,13.60
2023-05-06T02:54:30.463Z,13.60
2023-05-06T02:56:57.309Z,13.70
2023-05-06T02:59:24.168Z,13.60
2023-05-06T03:01:50.939Z,13.60
2023-05-06T03:04:17.900Z,13.60
2023-05-06T03:06:44.708Z,13.60
2023-05-06T03:09:11.761Z,13.60
2023-05-06T03:11:38.889Z,13.60
2023-05-06T03:14:06.856Z,13.80
2023-05-06T03:16:33.782Z,13.70
2023-05-06T03:19:03.659Z,13.60
2023-05-06T03:21:31.987Z,13.70
2023-05-06T03:23:59.730Z,13.70
2023-05-06T03:26:28.439Z,13.70
2023-05-06T03:28:55.939Z,13.60
2023-05-06T03:31:23.188Z,13.70
2023-05-06T03:33:50.828Z,13.60
2023-05-06T03:36:19.009Z,13.50
2023-05-06T03:38:47.872Z,13.50
2023-05-06T03:41:14.822Z,13.50
2023-05-06T03:43:41.801Z,13.40
2023-05-06T03:46:09.536Z,13.50
2023-05-06T03:48:37.231Z,13.40
2023-05-06T03:51:08.423Z,13.40
2023-05-06T03:53:35.627Z,13.40
2023-05-06T03:56:05.249Z,13.40
2023-05-06T03:58:33.472Z,13.50
2023-05-06T04:01:01.232Z,13.50
2023-05-06T04:03:28.971Z,13.40
2023-05-06T04:05:56.449Z,13.40
2023-05-06T04:08:26.238Z,13.40
2023-05-06T04:10:54.557Z,13.40
2023-05-06T04:13:31.743Z,13.40
2023-05-06T04:16:02.740Z,13.40
2023-05-06T04:18:35.419Z,13.40
2023-05-06T04:21:10.650Z,13.40
2023-05-06T04:23:38.467Z,13.40
2023-05-06T04:26:06.981Z,13.20
2023-05-06T04:28:35.829Z,13.40
2023-05-06T04:31:03.490Z,13.40
2023-05-06T04:33:39.108Z,13.30
2023-05-06T04:36:10.612Z,13.40
2023-05-06T04:38:42.245Z,13.40
2023-05-06T04:41:10.214Z,13.40
2023-05-06T04:43:37.082Z,13.50
2023-05-06T04:46:10.659Z,13.30
2023-05-06T04:48:39.673Z,13.30
2023-05-06T04:51:09.356Z,13.40
2023-05-06T04:53:37.137Z,13.30
2023-05-06T04:56:04.049Z,13.40
2023-05-06T04:58:32.105Z,13.30
2023-05-06T05:01:04.170Z,13.20
2023-05-06T05:03:31.798Z,13.20
2023-05-06T05:05:59.088Z,13.20
2023-05-06T05:08:27.253Z,13.30
2023-05-06T05:10:54.132Z,13.20
2023-05-06T05:13:23.334Z,13.20
2023-05-06T05:15:55.075Z,13.30
2023-05-06T05:18:24.512Z,13.20
2023-05-06T05:20:56.164Z,13.20
2023-05-06T05:23:23.407Z,13.10
2023-05-06T05:25:50.303Z,13.30
2023-05-06T05:28:17.543Z,13.30
2023-05-06T05:30:44.421Z,13.40
2023-05-06T05:33:11.550Z,13.20
2023-05-06T05:35:38.863Z,13.30
2023-05-06T05:38:06.247Z,13.40
2023-05-06T05:40:33.690Z,13.30
2023-05-06T05:43:00.624Z,13.20
2023-05-06T05:45:33.460Z,13.30
2023-05-06T05:48:00.357Z,13.20
2023-05-06T05:50:27.281Z,13.20
2023-05-06T05:52:55.998Z,13.20
2023-05-06T05:55:23.364Z,13.30
2023-05-06T05:57:51.405Z,13.30
2023-05-06T06:00:21.053Z,13.30
2023-05-06T06:02:47.948Z,13.30
2023-05-06T06:05:19.188Z,13.30
2023-05-06T06:07:47.203Z,13.40
2023-05-06T06:10:15.431Z,13.40
2023-05-06T06:12:44.673Z,13.30
2023-05-06T06:15:15.258Z,13.30
2023-05-06T06:17:44.441Z,13.30
2023-05-06T06:20:13.188Z,13.30
2023-05-06T06:22:40.965Z,13.30
2023-05-06T06:25:08.378Z,13.40
2023-05-06T06:27:36.691Z,13.40
2023-05-06T06:30:04.219Z,13.30
2023-05-06T06:32:31.219Z,13.30
2023-05-06T06:34:58.035Z,13.50
2023-05-06T06:37:24.814Z,13.50
2023-05-06T06:39:51.610Z,13.40
2023-05-06T06:42:18.431Z,13.30
2023-05-06T06:44:58.542Z,13.20
2023-05-06T06:47:25.507Z,13.20
2023-05-06T06:49:52.397Z,13.40
2023-05-06T06:52:19.229Z,13.30
2023-05-06T06:54:46.121Z,13.30
2023-05-06T06:57:12.938Z,13.40
2023-05-06T06:59:39.863Z,13.40
2023-05-06T07:02:06.996Z,13.30
2023-05-06T07:04:33.853Z,13.40
2023-05-06T07:07:00.780Z,13.30
2023-05-06T07:09:27.697Z,13.30
2023-05-06T07:11:54.579Z,13.40
2023-05-06T07:14:21.753Z,13.40
2023-05-06T07:16:50.136Z,13.40
2023-05-06T07:19:18.376Z,13.50
2023-05-06T07:21:45.226Z,13.50
2023-05-06T07:24:12.143Z,13.40
2023-05-06T07:26:39.825Z,13.50
2023-05-06T07:29:06.661Z,13.80
2023-05-06T07:31:33.909Z,13.70
2023-05-06T07:34:00.932Z,13.70
2023-05-06T07:36:28.736Z,13.80
2023-05-06T07:38:55.826Z,13.70
2023-05-06T07:41:22.724Z,13.70
2023-05-06T07:43:49.547Z,13.70
2023-05-06T07:46:16.819Z,13.80
2023-05-06T07:48:43.820Z,13.80
2023-05-06T07:51:10.712Z,13.90
2023-05-06T07:53:40.137Z,13.90
2023-05-06T07:56:07.236Z,13.80
2023-05-06T07:58:34.105Z,13.90
2023-05-06T08:01:00.939Z,14.10
2023-05-06T08:03:28.012Z,14.00
2023-05-06T08:05:55.350Z,14.10
2023-05-06T08:08:23.511Z,14.00
2023-05-06T08:10:50.407Z,14.10
2023-05-06T08:13:17.322Z,14.10
2023-05-06T08:15:44.277Z,14.10
2023-05-06T08:18:21.861Z,14.20
2023-05-06T08:20:50.064Z,14.20
2023-05-06T08:23:17.112Z,14.20
2023-05-06T08:25:44.018Z,14.30
2023-05-06T08:28:10.871Z,14.20
2023-05-06T08:30:37.814Z,14.30
2023-05-06T08:33:04.774Z,14.30
2023-05-06T08:35:31.651Z,14.30
2023-05-06T08:37:58.522Z,14.30
2023-05-06T08:40:26.978Z,14.30
2023-05-06T08:42:57.435Z,14.30
2023-05-06T08:45:24.456Z,14.40
2023-05-06T08:47:52.223Z,14.40
2023-05-06T08:50:19.216Z,14.60
2023-05-06T08:52:47.981Z,14.50
2023-05-06T08:55:15.333Z,14.30
2023-05-06T08:57:44.958Z,14.50
2023-05-06T09:00:12.399Z,14.50
2023-05-06T09:02:42.194Z,14.60
2023-05-06T09:05:10.599Z,14.70
2023-05-06T09:07:38.124Z,14.80
2023-05-06T09:10:13.601Z,14.80
2023-05-06T09:12:41.069Z,14.90
2023-05-06T09:15:09.755Z,14.80
2023-05-06T09:17:36.974Z,14.70
2023-05-06T09:20:06.380Z,14.70
2023-05-06T09:22:33.208Z,14.70
2023-05-06T09:25:00.540Z,14.90
2023-05-06T09:27:29.488Z,15.00
2023-05-06T09:30:07.583Z,14.80
2023-05-06T09:32:38.165Z,14.90
2023-05-06T09:35:08.173Z,14.90
2023-05-06T09:37:35.373Z,15.10
2023-05-06T09:40:02.256Z,15.10
2023-05-06T09:42:30.421Z,15.10
2023-05-06T09:45:01.635Z,15.00
2023-05-06T09:47:34.540Z,15.20
2023-05-06T09:50:02.793Z,15.10
2023-05-06T09:52:30.863Z,15.20
2023-05-06T09:54:58.283Z,15.30
2023-05-06T09:57:26.350Z,15.20
2023-05-06T09:59:55.534Z,15.20
2023-05-06T10:02:23.799Z,15.20
2023-05-06T10:04:51.496Z,15.10
2023-05-06T10:07:23.538Z,15.10
2023-05-06T10:09:53.562Z,15.30
2023-05-06T10:12:20.553Z,15.20
2023-05-06T10:14:47.760Z,15.30
2023-05-06T10:17:16.076Z,15.30
2023-05-06T10:19:49.177Z,15.20
2023-05-06T10:22:30.883Z,15.20
2023-05-06T10:25:29.114Z,15.10
2023-05-06T10:27:55.931Z,15.20
2023-05-06T10:30:24.975Z,15.00
2023-05-06T10:32:56.458Z,15.10
2023-05-06T10:35:35.448Z,15.20
2023-05-06T10:38:05.062Z,15.10
2023-05-06T10:40:32.232Z,15.20
2023-05-06T10:43:25.654Z,15.20
2023-05-06T10:46:09.748Z,15.20
2023-05-06T10:48:38.599Z,15.20
2023-05-06T10:51:21.491Z,15.60
2023-05-06T10:54:07.707Z,15.70
2023-05-06T10:56:59.119Z,15.80
2023-05-06T10:59:29.846Z,15.80
2023-05-06T11:02:08.957Z,15.80
2023-05-06T11:04:37.567Z,15.80
2023-05-06T11:07:15.580Z,15.90
2023-05-06T11:10:00.017Z,16.00
2023-05-06T11:12:46.423Z,16.00
2023-05-06T11:15:26.684Z,16.00
2023-05-06T11:17:55.780Z,16.00
2023-05-06T11:20:25.422Z,15.80
2023-05-06T11:22:53.394Z,15.90
2023-05-06T11:25:40.314Z,16.10
2023-05-06T11:28:11.683Z,16.00
2023-05-06T11:30:41.926Z,15.90
2023-05-06T11:33:13.696Z,15.90
2023-05-06T11:35:40.532Z,15.90
2023-05-06T11:38:07.508Z,15.80
2023-05-06T11:40:34.404Z,15.90
2023-05-06T11:43:14.986Z,15.90
2023-05-06T11:45:42.698Z,15.80
2023-05-06T11:48:12.861Z,15.80
2023-05-06T11:50:44.330Z,15.80
2023-05-06T11:53:11.384Z,15.80
2023-05-06T11:55:39.272Z,15.90
2023-05-06T11:58:06.186Z,15.90
2023-05-06T12:00:33.379Z,15.80
2023-05-06T12:03:00.448Z,15.80
2023-05-06T12:05:28.818Z,15.80
2023-05-06T12:07:55.972Z,16.00
2023-05-06T12:10:23.074Z,16.20
2023-05-06T12:12:50.051Z,16.20
2023-05-06T12:15:17.105Z,16.10
2023-05-06T12:17:44.125Z,16.30
2023-05-06T12:20:12.069Z,16.40
2023-05-06T12:22:39.078Z,16.40
2023-05-06T12:25:15.923Z,16.40
2023-05-06T12:27:42.762Z,16.40
2023-05-06T12:30:11.326Z,16.60
2023-05-06T12:32:57.654Z,16.70
2023-05-06T12:35:31.945Z,16.70
2023-05-06T12:38:11.925Z,16.70
2023-05-06T12:40:39.805Z,16.80
2023-05-06T12:43:06.856Z,16.80
2023-05-06T12:45:33.966Z,16.90
2023-05-06T12:48:02.401Z,16.90
2023-05-06T12:50:36.517Z,17.00
2023-05-06T12:53:07.972Z,17.00
2023-05-06T12:55:38.500Z,17.10
2023-05-06T12:58:15.784Z,17.10
2023-05-06T13:00:42.736Z,17.20
2023-05-06T13:03:11.525Z,17.20
2023-05-06T13:05:38.525Z,17.10
2023-05-06T13:08:05.879Z,17.10
2023-05-06T13:10:32.701Z,17.20
2023-05-06T13:12:59.600Z,17.20
2023-05-06T13:15:27.041Z,17.30
2023-05-06T13:17:54.204Z,17.30
2023-05-06T13:20:22.075Z,17.40
2023-05-06T13:22:54.747Z,17.50
2023-05-06T13:25:22.113Z,17.50
2023-05-06T13:27:49.211Z,17.60
2023-05-06T13:30:17.021Z,17.70
2023-05-06T13:32:43.963Z,17.60
2023-05-06T13:35:11.106Z,17.80
2023-05-06T13:37:38.151Z,17.80
2023-05-06T13:40:06.413Z,17.90
2023-05-06T13:42:33.354Z,18.10
2023-05-06T13:45:00.411Z,18.30
2023-05-06T13:47:27.299Z,18.20
2023-05-06T13:49:54.187Z,18.10
2023-05-06T13:52:21.129Z,18.10
2023-05-06T13:54:47.941Z,18.30
2023-05-06T13:57:14.750Z,18.30
2023-05-06T13:59:41.607Z,18.30
2023-05-06T14:02:09.817Z,18.30
2023-05-06T14:04:37.054Z,18.30
2023-05-06T14:07:03.977Z,18.20
2023-05-06T14:09:31.284Z,18.20
2023-05-06T14:11:58.097Z,18.00
2023-05-06T14:14:24.949Z,18.00
2023-05-06T14:16:54.509Z,17.90
2023-05-06T14:19:21.461Z,17.90
2023-05-06T14:21:48.320Z,18.00
2023-05-06T14:24:15.338Z,18.10
2023-05-06T14:26:42.726Z,18.00
2023-05-06T14:29:09.684Z,18.00
2023-05-06T14:31:36.775Z,17.90
2023-05-06T14:34:03.695Z,17.80
2023-05-06T14:36:31.243Z,17.90
2023-05-06T14:38:58.032Z,18.10
2023-05-06T14:41:25.019Z,18.10
2023-05-06T14:43:51.874Z,18.20
2023-05-06T14:46:18.844Z,18.10
2023-05-06T14:48:46.155Z,18.00
2023-05-06T14:51:12.983Z,18.00
2023-05-06T14:53:39.887Z,18.10
2023-05-06T14:56:09.533Z,18.10
2023-05-06T14:58:36.709Z,18.30
2023-05-06T15:01:03.687Z,18.30
2023-05-06T15:03:30.827Z,18.30
2023-05-06T15:05:57.813Z,18.20
2023-05-06T15:08:24.751Z,18.50
2023-05-06T15:10:51.679Z,18.70
2023-05-06T15:13:18.611Z,18.70
2023-05-06T15:15:46.091Z,18.80
2023-05-06T15:18:13.340Z,18.70
2023-05-06T15:20:40.446Z,18.70
2023-05-06T15:23:07.289Z,19.00
2023-05-06T15:25:36.306Z,19.10
2023-05-06T15:28:04.832Z,19.00
2023-05-06T15:30:31.744Z,19.00
2023-05-06T15:32:58.658Z,19.10
2023-05-06T15:35:25.740Z,19.10
2023-05-06T15:37:58.434Z,19.00
2023-05-06T15:40:26.195Z,19.00
2023-05-06T15:42:53.066Z,18.80
2023-05-06T15:45:20.704Z,18.80
2023-05-06T15:47:48.377Z,18.70
2023-05-06T15:50:25.388Z,18.70
2023-05-06T15:52:59.937Z,18.60
2023-05-06T15:55:26.880Z,18.50
2023-05-06T15:57:54.820Z,18.50
2023-05-06T16:00:22.317Z,18.40
2023-05-06T16:02:49.520Z,18.30
2023-05-06T16:05:16.739Z,18.30
2023-05-06T16:07:43.718Z,18.30
2023-05-06T16:10:10.906Z,18.20
2023-05-06T16:12:38.042Z,18.10
2023-05-06T16:15:05.306Z,18.10
2023-05-06T16:17:33.063Z,18.00
2023-05-06T16:19:59.941Z,17.90
2023-05-06T16:22:26.803Z,18.00
2023-05-06T16:24:53.708Z,17.90
2023-05-06T16:27:21.586Z,17.90
2023-05-06T16:29:48.591Z,17.80
2023-05-06T16:32:15.416Z,17.80
2023-05-06T16:34:42.194Z,17.80
2023-05-06T16:37:09.713Z,17.70
2023-05-06T16:39:36.573Z,17.70
2023-05-06T16:42:03.690Z,17.70
2023-05-06T16:44:30.704Z,17.60
2023-05-06T16:46:57.609Z,17.60
2023-05-06T16:49:27.794Z,17.50
2023-05-06T16:51:54.873Z,17.50
2023-05-06T16:54:21.699Z,17.50
2023-05-06T16:56:52.596Z,17.50
2023-05-06T16:59:21.861Z,17.50
2023-05-06T17:01:50.070Z,17.40
2023-05-06T17:04:16.967Z,17.50
2023-05-06T17:06:43.852Z,17.40
2023-05-06T17:09:11.032Z,17.30
2023-05-06T17:11:37.942Z,17.30
2023-05-06T17:14:04.979Z,17.40
2023-05-06T17:16:32.008Z,17.40
2023-05-06T17:18:58.981Z,17.30
2023-05-06T17:21:26.900Z,17.20
2023-05-06T17:23:54.576Z,17.10
2023-05-06T17:26:21.975Z,17.10
2023-05-06T17:28:49.082Z,17.00
2023-05-06T17:31:16.127Z,17.00
2023-05-06T17:33:44.463Z,16.90
2023-05-06T17:36:12.530Z,16.90
2023-05-06T17:38:39.811Z,16.90
2023-05-06T17:41:06.701Z,16.90
2023-05-06T17:43:34.165Z,16.80
2023-05-06T17:46:01.341Z,16.80
2023-05-06T17:48:28.197Z,16.70
2023-05-06T17:50:59.861Z,16.70
2023-05-06T17:53:26.717Z,16.70
2023-05-06T17:55:53.604Z,16.60
2023-05-06T17:58:21.448Z,16.60
2023-05-06T18:00:48.489Z,16.50
2023-05-06T18:03:15.460Z,16.50
2023-05-06T18:05:42.405Z,16.40
2023-05-06T18:08:09.618Z,16.50
2023-05-06T18:10:36.588Z,16.40
2023-05-06T18:13:03.904Z,16.40
2023-05-06T18:15:30.976Z,16.40
2023-05-06T18:17:57.817Z,16.40
2023-05-06T18:20:24.684Z,16.40
2023-05-06T18:22:51.568Z,16.40
2023-05-06T18:25:18.418Z,16.30
2023-05-06T18:27:45.266Z,16.20
2023-05-06T18:30:12.296Z,16.10
2023-05-06T18:32:39.199Z,16.10
2023-05-06T18:35:06.531Z,16.10
2023-05-06T18:37:33.481Z,16.10
2023-05-06T18:40:00.294Z,16.00
2023-05-06T18:42:27.759Z,16.10
2023-05-06T18:44:54.649Z,16.00
2023-05-06T18:47:21.599Z,16.00
2023-05-06T18:49:48.808Z,16.00
2023-05-06T18:52:17.646Z,15.90
2023-05-06T18:54:45.050Z,15.90
2023-05-06T18:57:12.503Z,15.90
2023-05-06T18:59:39.459Z,15.90
2023-05-06T19:02:06.879Z,15.80
2023-05-06T19:04:33.859Z,15.80
2023-05-06T19:07:01.159Z,15.70
2023-05-06T19:09:28.155Z,15.60
2023-05-06T19:11:55.791Z,15.50
2023-05-06T19:14:23.661Z,15.60
2023-05-06T19:16:52.354Z,15.50
2023-05-06T19:19:19.211Z,15.50
2023-05-06T19:21:46.056Z,15.50
2023-05-06T19:24:12.899Z,15.50
2023-05-06T19:26:40.116Z,15.50
2023-05-06T19:29:07.013Z,15.50
2023-05-06T19:31:34.911Z,15.50
2023-05-06T19:34:01.929Z,15.40
2023-05-06T19:36:28.823Z,15.40
2023-05-06T19:38:55.605Z,15.50
2023-05-06T19:41:22.440Z,15.30
2023-05-06T19:43:51.413Z,15.40
2023-05-06T19:46:18.593Z,15.40
2023-05-06T19:48:46.252Z,15.40
2023-05-06T19:51:13.094Z,15.30
2023-05-06T19:53:39.958Z,15.20
2023-05-06T19:56:14.375Z,15.20
2023-05-06T19:58:41.204Z,15.30
2023-05-06T20:01:09.008Z,15.30
2023-05-06T20:03:36.149Z,15.30
2023-05-06T20:06:03.988Z,15.20
2023-05-06T20:08:31.170Z,15.20
2023-05-06T20:10:58.133Z,15.20
2023-05-06T20:13:25.129Z,15.20
2023-05-06T20:15:53.431Z,15.10
2023-05-06T20:18:20.374Z,15.20
2023-05-06T20:20:47.253Z,15.20
2023-05-06T20:23:14.083Z,15.20
2023-05-06T20:25:40.971Z,15.00
2023-05-06T20:28:07.823Z,15.10
2023-05-06T20:30:34.734Z,15.10
2023-05-06T20:33:01.995Z,15.10
2023-05-06T20:35:29.131Z,15.00
2023-05-06T20:37:55.975Z,15.00
2023-05-06T20:40:22.985Z,15.00
2023-05-06T20:42:49.855Z,14.90
2023-05-06T20:45:16.875Z,15.20
2023-05-06T20:47:44.348Z,15.00
2023-05-06T20:50:16.767Z,15.00
2023-05-06T20:52:45.628Z,15.00
2023-05-06T20:55:14.756Z,15.00
2023-05-06T20:57:44.738Z,14.90
2023-05-06T21:00:12.260Z,14.90
2023-05-06T21:02:41.342Z,15.00
2023-05-06T21:05:09.368Z,14.90
2023-05-06T21:07:36.482Z,14.90
2023-05-06T21:10:05.893Z,14.90
2023-05-06T21:12:33.601Z,14.90
2023-05-06T21:15:00.699Z,14.80
2023-05-06T21:17:27.942Z,14.80
2023-05-06T21:19:55.211Z,14.90
2023-05-06T21:22:23.320Z,14.80
2023-05-06T21:24:50.766Z,14.70
2023-05-06T21:27:17.613Z,14.60
2023-05-06T21:29:44.432Z,14.70
2023-05-06T21:32:11.380Z,14.50
2023-05-06T21:34:38.362Z,14.70
2023-05-06T21:37:05.277Z,14.60
2023-05-06T21:39:32.113Z,14.70
2023-05-06T21:41:58.980Z,14.70
2023-05-06T21:44:26.033Z,14.90
2023-05-06T21:46:52.859Z,14.80
2023-05-06T21:49:21.874Z,14.70
2023-05-06T21:51:48.799Z,14.80
2023-05-06T21:54:17.102Z,14.70
2023-05-06T21:56:45.091Z,14.60
2023-05-06T21:59:11.891Z,14.70
2023-05-06T22:01:39.091Z,14.80
2023-05-06T22:04:11.375Z,14.70
2023-05-06T22:06:39.171Z,14.60
2023-05-06T22:09:09.202Z,14.70
2023-05-06T22:11:37.830Z,14.70
2023-05-06T22:14:05.984Z,14.70
2023-05-06T22:16:35.514Z,14.70
2023-05-06T22:19:03.891Z,14.70
2023-05-06T22:21:31.858Z,14.80
2023-05-06T22:23:58.737Z,14.70
2023-05-06T22:26:27.998Z,14.70
2023-05-06T22:28:56.277Z,14.70
2023-05-06T22:31:24.483Z,14.60
2023-05-06T22:33:55.189Z,14.70
2023-05-06T22:36:22.005Z,14.50
2023-05-06T22:38:48.821Z,14.30
2023-05-06T22:41:17.244Z,14.50
2023-05-06T22:43:44.058Z,14.40
2023-05-06T22:46:10.975Z,14.40
2023-05-06T22:48:37.866Z,14.40
2023-05-06T22:51:04.919Z,14.30
2023-05-06T22:53:31.972Z,14.50
2023-05-06T22:55:58.887Z,14.40
2023-05-06T22:58:25.735Z,14.30
2023-05-06T23:00:52.646Z,14.20
2023-05-06T23:03:19.662Z,14.30
2023-05-06T23:05:46.563Z,14.20
2023-05-06T23:08:13.401Z,14.30
2023-05-06T23:10:40.515Z,14.30
2023-05-06T23:13:07.824Z,14.30
2023-05-06T23:15:34.775Z,14.10
2023-05-06T23:18:01.587Z,14.10
2023-05-06T23:20:28.369Z,14.00
2023-05-06T23:22:55.232Z,14.10
2023-05-06T23:25:22.071Z,14.10
2023-05-06T23:27:48.958Z,13.90
2023-05-06T23:30:15.879Z,14.00
2023-05-06T23:32:42.860Z,14.00
2023-05-06T23:35:10.262Z,14.30
2023-05-06T23:37:37.193Z,14.20
2023-05-06T23:40:04.582Z,14.40
2023-05-06T23:42:31.451Z,14.40
2023-05-06T23:45:00.177Z,14.50
2023-05-06T23:47:27.122Z,14.40
2023-05-06T23:49:54.013Z,14.30
2023-05-06T23:52:21.310Z,14.30
2023-05-06T23:54:48.174Z,14.30
2023-05-06T23:57:15.098Z,14.30
2023-05-06T23:59:41.907Z,14.20
